sensor_id;sensor_type;location;lat;lon;timestamp;pressure;altitude;pressure_sealevel;temperature;humidity
49979;BME280;35869;50.990;6.962;2022-10-31T00:04:37;101777.47;;;13.25;100.00
49979;BME280;35869;50.990;6.962;2022-10-31T00:09:37;101768.06;;;13.21;100.00
49979;BME280;35869;50.990;6.962;2022-10-31T00:14:38;101773.13;;;13.25;100.00
49979;BME280;35869;50.990;6.962;2022-10-31T00:19:38;101784.50;;;13.23;100.00
49979;BME280;35869;50.990;6.962;2022-10-31T00:24:38;101777.13;;;13.11;100.00
49979;BME280;35869;50.990;6.962;2022-10-31T00:29:38;101777.13;;;13.11;100.00
49979;BME280;35869;50.990;6.962;2022-10-31T00:34:39;101769.13;;;13.15;100.00
49979;BME280;35869;50.990;6.962;2022-10-31T00:39:39;101757.94;;;13.12;100.00
49979;BME280;35869;50.990;6.962;2022-10-31T00:44:39;101778.97;;;13.07;100.00
49979;BME280;35869;50.990;6.962;2022-10-31T00:49:39;101800.00;;;13.04;100.00
49979;BME280;35869;50.990;6.962;2022-10-31T00:54:40;101811.34;;;13.03;100.00
49979;BME280;35869;50.990;6.962;2022-10-31T00:59:40;101805.28;;;13.02;100.00
49979;BME280;35869;50.990;6.962;2022-10-31T01:04:40;101806.97;;;13.03;100.00
49979;BME280;35869;50.990;6.962;2022-10-31T01:09:40;101800.09;;;13.01;100.00
49979;BME280;35869;50.990;6.962;2022-10-31T01:14:44;101778.44;;;12.99;100.00
49979;BME280;35869;50.990;6.962;2022-10-31T01:19:45;101793.34;;;12.95;100.00
49979;BME280;35869;50.990;6.962;2022-10-31T01:24:45;101780.50;;;12.91;100.00
49979;BME280;35869;50.990;6.962;2022-10-31T01:29:45;101776.84;;;12.95;100.00
49979;BME280;35869;50.990;6.962;2022-10-31T01:34:46;101766.63;;;12.89;100.00
49979;BME280;35869;50.990;6.962;2022-10-31T01:39:48;101764.69;;;12.94;100.00
49979;BME280;35869;50.990;6.962;2022-10-31T01:44:55;101758.78;;;12.90;100.00
49979;BME280;35869;50.990;6.962;2022-10-31T01:49:59;101750.06;;;12.90;100.00
49979;BME280;35869;50.990;6.962;2022-10-31T01:55:06;101748.34;;;12.90;100.00
49979;BME280;35869;50.990;6.962;2022-10-31T02:00:09;101741.38;;;12.89;100.00
49979;BME280;35869;50.990;6.962;2022-10-31T02:05:14;101733.75;;;12.85;100.00
49979;BME280;35869;50.990;6.962;2022-10-31T02:10:16;101736.63;;;12.77;100.00
49979;BME280;35869;50.990;6.962;2022-10-31T02:15:16;101749.75;;;12.75;100.00
49979;BME280;35869;50.990;6.962;2022-10-31T02:20:23;101749.75;;;12.75;100.00
49979;BME280;35869;50.990;6.962;2022-10-31T02:30:41;101751.88;;;12.64;100.00
49979;BME280;35869;50.990;6.962;2022-10-31T02:36:08;101758.78;;;12.65;100.00
49979;BME280;35869;50.990;6.962;2022-10-31T02:46:34;101756.69;;;12.51;100.00
49979;BME280;35869;50.990;6.962;2022-10-31T02:51:38;101773.19;;;12.52;100.00
49979;BME280;35869;50.990;6.962;2022-10-31T02:56:39;101763.75;;;12.48;100.00
49979;BME280;35869;50.990;6.962;2022-10-31T03:12:04;101756.47;;;12.58;100.00
49979;BME280;35869;50.990;6.962;2022-10-31T03:17:12;101758.28;;;12.56;100.00
49979;BME280;35869;50.990;6.962;2022-10-31T03:22:20;101762.66;;;12.55;100.00
49979;BME280;35869;50.990;6.962;2022-10-31T03:27:25;101772.28;;;12.53;100.00
49979;BME280;35869;50.990;6.962;2022-10-31T03:32:32;101772.34;;;12.51;100.00
49979;BME280;35869;50.990;6.962;2022-10-31T03:37:35;101767.19;;;12.50;100.00
49979;BME280;35869;50.990;6.962;2022-10-31T03:42:41;101773.09;;;12.55;100.00
49979;BME280;35869;50.990;6.962;2022-10-31T03:47:43;101755.94;;;12.48;100.00
49979;BME280;35869;50.990;6.962;2022-10-31T03:53:03;101757.53;;;12.52;100.00
49979;BME280;35869;50.990;6.962;2022-10-31T03:58:08;101757.84;;;12.43;100.00
49979;BME280;35869;50.990;6.962;2022-10-31T04:03:14;101757.75;;;12.46;100.00
49979;BME280;35869;50.990;6.962;2022-10-31T04:08:17;101750.69;;;12.49;100.00
49979;BME280;35869;50.990;6.962;2022-10-31T04:13:24;101756.06;;;12.45;100.00
49979;BME280;35869;50.990;6.962;2022-10-31T04:18:26;101760.53;;;12.41;100.00
49979;BME280;35869;50.990;6.962;2022-10-31T04:23:26;101750.84;;;12.45;100.00
49979;BME280;35869;50.990;6.962;2022-10-31T04:28:27;101749.41;;;12.36;100.00
49979;BME280;35869;50.990;6.962;2022-10-31T04:33:27;101750.84;;;12.45;100.00
49979;BME280;35869;50.990;6.962;2022-10-31T04:38:27;101746.44;;;12.47;100.00
49979;BME280;35869;50.990;6.962;2022-10-31T04:43:27;101733.03;;;12.33;100.00
49979;BME280;35869;50.990;6.962;2022-10-31T04:48:28;101747.56;;;12.40;100.00
49979;BME280;35869;50.990;6.962;2022-10-31T04:53:29;101736.28;;;12.39;100.00
49979;BME280;35869;50.990;6.962;2022-10-31T04:58:29;101747.66;;;12.37;100.00
49979;BME280;35869;50.990;6.962;2022-10-31T05:03:29;101730.31;;;12.36;100.00
49979;BME280;35869;50.990;6.962;2022-10-31T05:08:29;101728.84;;;12.28;100.00
49979;BME280;35869;50.990;6.962;2022-10-31T05:13:30;101712.34;;;12.28;100.00
49979;BME280;35869;50.990;6.962;2022-10-31T05:18:31;101708.94;;;12.26;100.00
49979;BME280;35869;50.990;6.962;2022-10-31T05:23:31;101711.56;;;12.26;100.00
49979;BME280;35869;50.990;6.962;2022-10-31T05:28:31;101709.09;;;12.21;100.00
49979;BME280;35869;50.990;6.962;2022-10-31T05:33:31;101707.22;;;12.25;100.00
49979;BME280;35869;50.990;6.962;2022-10-31T05:38:32;101702.75;;;12.28;100.00
49979;BME280;35869;50.990;6.962;2022-10-31T05:43:32;101695.84;;;12.27;100.00
49979;BME280;35869;50.990;6.962;2022-10-31T05:48:32;101694.38;;;12.20;100.00
49979;BME280;35869;50.990;6.962;2022-10-31T05:53:32;101696.16;;;12.18;100.00
49979;BME280;35869;50.990;6.962;2022-10-31T05:58:33;101708.28;;;12.19;100.00
49979;BME280;35869;50.990;6.962;2022-10-31T06:03:33;101703.28;;;12.13;100.00
49979;BME280;35869;50.990;6.962;2022-10-31T06:08:33;101704.34;;;12.08;100.00
49979;BME280;35869;50.990;6.962;2022-10-31T06:13:34;101700.75;;;12.12;100.00
49979;BME280;35869;50.990;6.962;2022-10-31T06:18:34;101706.03;;;12.10;100.00
49979;BME280;35869;50.990;6.962;2022-10-31T06:23:34;101707.84;;;12.08;100.00
49979;BME280;35869;50.990;6.962;2022-10-31T06:28:34;101711.59;;;11.99;100.00
49979;BME280;35869;50.990;6.962;2022-10-31T06:33:35;101708.94;;;12.01;100.00
49979;BME280;35869;50.990;6.962;2022-10-31T06:38:35;101710.84;;;11.96;100.00
49979;BME280;35869;50.990;6.962;2022-10-31T06:43:35;101702.16;;;11.97;100.00
49979;BME280;35869;50.990;6.962;2022-10-31T06:48:35;101709.25;;;11.92;100.00
49979;BME280;35869;50.990;6.962;2022-10-31T06:53:36;101709.34;;;11.89;100.00
49979;BME280;35869;50.990;6.962;2022-10-31T06:58:36;101711.25;;;11.84;100.00
49979;BME280;35869;50.990;6.962;2022-10-31T07:03:36;101707.94;;;11.79;100.00
49979;BME280;35869;50.990;6.962;2022-10-31T07:08:36;101713.16;;;11.79;100.00
49979;BME280;35869;50.990;6.962;2022-10-31T07:13:37;101709.50;;;11.84;100.00
49979;BME280;35869;50.990;6.962;2022-10-31T07:18:37;101711.81;;;11.93;100.00
49979;BME280;35869;50.990;6.962;2022-10-31T07:23:37;101712.72;;;11.92;100.00
49979;BME280;35869;50.990;6.962;2022-10-31T07:28:37;101723.97;;;11.93;100.00
49979;BME280;35869;50.990;6.962;2022-10-31T07:33:38;101726.59;;;11.93;100.00
49979;BME280;35869;50.990;6.962;2022-10-31T07:38:38;101736.94;;;11.94;100.00
49979;BME280;35869;50.990;6.962;2022-10-31T07:43:38;101738.63;;;11.97;100.00
49979;BME280;35869;50.990;6.962;2022-10-31T07:48:38;101732.38;;;12.01;100.00
49979;BME280;35869;50.990;6.962;2022-10-31T07:53:39;101735.69;;;12.06;100.00
49979;BME280;35869;50.990;6.962;2022-10-31T07:58:39;101742.66;;;12.06;100.00
49979;BME280;35869;50.990;6.962;2022-10-31T08:03:39;101735.69;;;12.06;100.00
49979;BME280;35869;50.990;6.962;2022-10-31T08:08:39;101733.00;;;12.09;100.00
49979;BME280;35869;50.990;6.962;2022-10-31T08:13:40;101732.78;;;12.15;100.00
49979;BME280;35869;50.990;6.962;2022-10-31T08:18:40;101721.44;;;12.16;100.00
49979;BME280;35869;50.990;6.962;2022-10-31T08:23:40;101723.03;;;12.20;100.00
49979;BME280;35869;50.990;6.962;2022-10-31T08:28:40;101719.53;;;12.21;100.00
49979;BME280;35869;50.990;6.962;2022-10-31T08:33:41;101710.66;;;12.27;100.00
49979;BME280;35869;50.990;6.962;2022-10-31T08:38:41;101717.44;;;12.31;100.00
49979;BME280;35869;50.990;6.962;2022-10-31T08:43:41;101711.28;;;12.34;100.00
49979;BME280;35869;50.990;6.962;2022-10-31T08:48:41;101703.16;;;12.41;100.00
49979;BME280;35869;50.990;6.962;2022-10-31T08:53:41;101695.97;;;12.48;100.00
49979;BME280;35869;50.990;6.962;2022-10-31T08:58:42;101689.66;;;12.55;100.00
49979;BME280;35869;50.990;6.962;2022-10-31T09:03:42;101693.09;;;12.56;100.00
49979;BME280;35869;50.990;6.962;2022-10-31T09:08:42;101682.16;;;12.69;100.00
49979;BME280;35869;50.990;6.962;2022-10-31T09:13:43;101682.59;;;12.80;100.00
49979;BME280;35869;50.990;6.962;2022-10-31T09:18:43;101681.56;;;12.85;100.00
49979;BME280;35869;50.990;6.962;2022-10-31T09:23:43;101674.91;;;12.99;100.00
49979;BME280;35869;50.990;6.962;2022-10-31T09:28:43;101670.28;;;13.06;100.00
49979;BME280;35869;50.990;6.962;2022-10-31T09:33:43;101666.94;;;13.26;100.00
49979;BME280;35869;50.990;6.962;2022-10-31T09:38:44;101658.88;;;13.30;100.00
49979;BME280;35869;50.990;6.962;2022-10-31T09:54:20;101634.84;;;13.65;100.00
49979;BME280;35869;50.990;6.962;2022-10-31T09:59:32;101630.41;;;13.87;100.00
49979;BME280;35869;50.990;6.962;2022-10-31T10:09:52;101610.16;;;14.11;100.00
49979;BME280;35869;50.990;6.962;2022-10-31T10:30:30;101588.94;;;14.92;99.66
49979;BME280;35869;50.990;6.962;2022-10-31T10:35:54;101570.09;;;15.03;98.00
49979;BME280;35869;50.990;6.962;2022-10-31T10:40:58;101551.78;;;15.20;97.71
49979;BME280;35869;50.990;6.962;2022-10-31T10:51:01;101556.16;;;15.55;95.67
49979;BME280;35869;50.990;6.962;2022-10-31T10:56:11;101541.53;;;15.68;95.99
49979;BME280;35869;50.990;6.962;2022-10-31T11:01:15;101519.56;;;15.86;92.55
49979;BME280;35869;50.990;6.962;2022-10-31T11:06:21;101514.00;;;15.92;92.88
49979;BME280;35869;50.990;6.962;2022-10-31T11:16:35;101523.94;;;16.19;93.94
49979;BME280;35869;50.990;6.962;2022-10-31T11:21:36;101517.72;;;16.36;92.85
49979;BME280;35869;50.990;6.962;2022-10-31T11:26:38;101514.50;;;16.46;91.73
49979;BME280;35869;50.990;6.962;2022-10-31T11:31:39;101512.13;;;16.58;89.88
49979;BME280;35869;50.990;6.962;2022-10-31T11:36:39;101503.50;;;16.56;93.17
49979;BME280;35869;50.990;6.962;2022-10-31T11:41:43;101496.59;;;16.69;90.26
49979;BME280;35869;50.990;6.962;2022-10-31T11:46:47;101479.19;;;16.68;89.50
49979;BME280;35869;50.990;6.962;2022-10-31T11:51:51;101464.00;;;17.03;87.34
49979;BME280;35869;50.990;6.962;2022-10-31T11:56:52;101456.25;;;17.01;86.35
49979;BME280;35869;50.990;6.962;2022-10-31T12:01:54;101454.25;;;17.05;89.34
49979;BME280;35869;50.990;6.962;2022-10-31T12:06:55;101437.47;;;17.22;87.19
49979;BME280;35869;50.990;6.962;2022-10-31T12:12:18;101430.38;;;17.38;85.63
49979;BME280;35869;50.990;6.962;2022-10-31T12:17:39;101420.22;;;17.32;86.74
49979;BME280;35869;50.990;6.962;2022-10-31T12:22:50;101409.41;;;17.51;83.54
49979;BME280;35869;50.990;6.962;2022-10-31T12:33:20;101400.13;;;17.59;82.81
49979;BME280;35869;50.990;6.962;2022-10-31T12:59:33;101322.34;;;17.70;81.91
49979;BME280;35869;50.990;6.962;2022-10-31T13:04:47;101309.31;;;17.68;80.78
49979;BME280;35869;50.990;6.962;2022-10-31T13:15:22;101292.03;;;17.78;80.60
49979;BME280;35869;50.990;6.962;2022-10-31T13:25:26;101266.81;;;17.89;80.98
49979;BME280;35869;50.990;6.962;2022-10-31T13:30:33;101273.66;;;17.91;80.88
49979;BME280;35869;50.990;6.962;2022-10-31T13:35:52;101264.41;;;17.98;80.66
49979;BME280;35869;50.990;6.962;2022-10-31T13:41:11;101263.03;;;17.93;83.18
49979;BME280;35869;50.990;6.962;2022-10-31T13:46:24;101267.69;;;18.02;83.00
49979;BME280;35869;50.990;6.962;2022-10-31T13:51:30;101248.13;;;18.06;80.82
49979;BME280;35869;50.990;6.962;2022-10-31T13:56:33;101239.81;;;18.12;79.21
49979;BME280;35869;50.990;6.962;2022-10-31T14:01:34;101231.81;;;18.01;83.18
49979;BME280;35869;50.990;6.962;2022-10-31T14:11:36;101215.91;;;18.02;83.91
49979;BME280;35869;50.990;6.962;2022-10-31T14:16:38;101192.03;;;18.05;79.10
49979;BME280;35869;50.990;6.962;2022-10-31T14:21:42;101180.34;;;18.09;79.98
49979;BME280;35869;50.990;6.962;2022-10-31T14:32:03;101160.56;;;18.17;78.98
49979;BME280;35869;50.990;6.962;2022-10-31T14:53:28;101164.97;;;18.16;78.46
49979;BME280;35869;50.990;6.962;2022-10-31T14:58:41;101155.41;;;18.02;82.45
49979;BME280;35869;50.990;6.962;2022-10-31T15:03:44;101147.81;;;18.10;80.29
49979;BME280;35869;50.990;6.962;2022-10-31T15:08:51;101136.34;;;18.11;80.24
49979;BME280;35869;50.990;6.962;2022-10-31T15:13:56;101116.59;;;18.06;78.78
49979;BME280;35869;50.990;6.962;2022-10-31T15:19:06;101110.47;;;18.05;84.68
49979;BME280;35869;50.990;6.962;2022-10-31T15:24:11;101102.50;;;17.94;78.14
49979;BME280;35869;50.990;6.962;2022-10-31T15:29:18;101096.84;;;18.00;76.82
49979;BME280;35869;50.990;6.962;2022-10-31T15:34:39;101087.34;;;17.98;77.74
49979;BME280;35869;50.990;6.962;2022-10-31T15:39:40;101079.34;;;17.99;74.82
49979;BME280;35869;50.990;6.962;2022-10-31T15:44:41;101081.03;;;17.88;79.91
49979;BME280;35869;50.990;6.962;2022-10-31T15:50:03;101071.28;;;17.77;83.93
49979;BME280;35869;50.990;6.962;2022-10-31T16:05:22;101065.34;;;17.61;78.72
49979;BME280;35869;50.990;6.962;2022-10-31T16:10:25;101064.16;;;17.52;84.02
49979;BME280;35869;50.990;6.962;2022-10-31T16:15:26;101054.19;;;17.44;84.41
49979;BME280;35869;50.990;6.962;2022-10-31T16:20:29;101052.50;;;17.30;81.60
49979;BME280;35869;50.990;6.962;2022-10-31T16:25:36;101051.13;;;17.25;78.81
49979;BME280;35869;50.990;6.962;2022-10-31T16:30:39;101060.25;;;17.19;81.33
49979;BME280;35869;50.990;6.962;2022-10-31T16:35:39;101056.66;;;17.08;83.27
49979;BME280;35869;50.990;6.962;2022-10-31T16:40:40;101058.00;;;17.00;85.13
49979;BME280;35869;50.990;6.962;2022-10-31T16:45:45;101047.50;;;17.00;82.72
49979;BME280;35869;50.990;6.962;2022-10-31T16:50:46;101042.84;;;16.91;82.92
49979;BME280;35869;50.990;6.962;2022-10-31T16:55:52;101046.16;;;16.81;84.07
49979;BME280;35869;50.990;6.962;2022-10-31T17:00:53;101052.75;;;16.73;85.06
49979;BME280;35869;50.990;6.962;2022-10-31T17:05:54;101052.19;;;16.68;84.72
49979;BME280;35869;50.990;6.962;2022-10-31T17:10:55;101058.88;;;16.60;83.02
49979;BME280;35869;50.990;6.962;2022-10-31T17:15:58;101057.38;;;16.56;83.58
49979;BME280;35869;50.990;6.962;2022-10-31T17:21:01;101057.56;;;16.52;83.35
49979;BME280;35869;50.990;6.962;2022-10-31T17:26:02;101061.53;;;16.45;81.59
49979;BME280;35869;50.990;6.962;2022-10-31T17:31:02;101055.81;;;16.39;81.59
49979;BME280;35869;50.990;6.962;2022-10-31T17:36:02;101052.53;;;16.35;83.40
49979;BME280;35869;50.990;6.962;2022-10-31T17:41:06;101052.53;;;16.35;83.43
49979;BME280;35869;50.990;6.962;2022-10-31T17:46:07;101039.19;;;16.25;84.89
49979;BME280;35869;50.990;6.962;2022-10-31T17:51:07;101049.00;;;16.22;86.47
49979;BME280;35869;50.990;6.962;2022-10-31T17:56:08;101051.00;;;16.18;84.55
49979;BME280;35869;50.990;6.962;2022-10-31T18:01:09;101048.84;;;16.11;86.82
49979;BME280;35869;50.990;6.962;2022-10-31T18:06:11;101046.59;;;16.05;85.84
49979;BME280;35869;50.990;6.962;2022-10-31T18:11:15;101043.50;;;15.98;86.59
49979;BME280;35869;50.990;6.962;2022-10-31T18:16:16;101040.22;;;15.94;87.26
49979;BME280;35869;50.990;6.962;2022-10-31T18:21:16;101028.25;;;15.90;85.06
49979;BME280;35869;50.990;6.962;2022-10-31T18:26:16;101023.84;;;15.91;85.68
49979;BME280;35869;50.990;6.962;2022-10-31T18:31:17;101021.78;;;15.82;86.26
49979;BME280;35869;50.990;6.962;2022-10-31T18:36:17;101020.13;;;15.81;83.73
49979;BME280;35869;50.990;6.962;2022-10-31T18:41:18;101013.28;;;15.78;85.69
49979;BME280;35869;50.990;6.962;2022-10-31T18:46:18;101014.78;;;15.82;86.45
49979;BME280;35869;50.990;6.962;2022-10-31T18:51:18;101012.53;;;15.76;85.86
49979;BME280;35869;50.990;6.962;2022-10-31T18:56:19;101008.97;;;15.77;85.95
49979;BME280;35869;50.990;6.962;2022-10-31T19:01:20;101014.50;;;15.72;85.27
49979;BME280;35869;50.990;6.962;2022-10-31T19:06:25;101003.34;;;15.69;87.00
49979;BME280;35869;50.990;6.962;2022-10-31T19:11:26;100997.38;;;15.67;87.59
49979;BME280;35869;50.990;6.962;2022-10-31T19:16:26;100994.94;;;15.64;87.90
49979;BME280;35869;50.990;6.962;2022-10-31T19:21:27;101000.50;;;15.58;88.59
49979;BME280;35869;50.990;6.962;2022-10-31T19:26:27;100991.72;;;15.59;87.87
49979;BME280;35869;50.990;6.962;2022-10-31T19:31:28;100990.59;;;15.49;87.29
49979;BME280;35869;50.990;6.962;2022-10-31T19:36:28;100983.66;;;15.47;86.89
49979;BME280;35869;50.990;6.962;2022-10-31T19:41:28;100981.25;;;15.44;87.03
49979;BME280;35869;50.990;6.962;2022-10-31T19:46:29;100986.84;;;15.38;87.90
49979;BME280;35869;50.990;6.962;2022-10-31T19:51:29;100988.63;;;15.38;88.40
49979;BME280;35869;50.990;6.962;2022-10-31T19:56:29;100977.69;;;15.31;88.02
49979;BME280;35869;50.990;6.962;2022-10-31T20:01:29;100973.38;;;15.30;87.54
49979;BME280;35869;50.990;6.962;2022-10-31T20:06:31;100960.47;;;15.27;88.38
49979;BME280;35869;50.990;6.962;2022-10-31T20:11:32;100968.78;;;15.19;88.14
49979;BME280;35869;50.990;6.962;2022-10-31T20:16:32;100960.84;;;15.21;88.74
49979;BME280;35869;50.990;6.962;2022-10-31T20:21:35;100958.38;;;15.18;88.51
49979;BME280;35869;50.990;6.962;2022-10-31T20:26:39;100956.34;;;15.23;88.18
49979;BME280;35869;50.990;6.962;2022-10-31T20:31:40;100955.22;;;15.13;87.86
49979;BME280;35869;50.990;6.962;2022-10-31T20:36:41;100941.19;;;15.14;89.21
49979;BME280;35869;50.990;6.962;2022-10-31T20:41:41;100947.00;;;15.19;88.14
49979;BME280;35869;50.990;6.962;2022-10-31T20:46:41;100937.53;;;15.16;87.17
49979;BME280;35869;50.990;6.962;2022-10-31T20:51:41;100924.53;;;15.15;87.41
49979;BME280;35869;50.990;6.962;2022-10-31T20:56:42;100916.78;;;15.13;88.37
49979;BME280;35869;50.990;6.962;2022-10-31T21:01:42;100914.44;;;15.09;88.18
49979;BME280;35869;50.990;6.962;2022-10-31T21:06:42;100912.81;;;15.06;88.16
49979;BME280;35869;50.990;6.962;2022-10-31T21:11:42;100913.03;;;15.03;88.49
49979;BME280;35869;50.990;6.962;2022-10-31T21:16:43;100909.75;;;15.00;88.36
49979;BME280;35869;50.990;6.962;2022-10-31T21:21:43;100908.06;;;14.99;89.17
49979;BME280;35869;50.990;6.962;2022-10-31T21:26:46;100909.38;;;14.91;89.56
49979;BME280;35869;50.990;6.962;2022-10-31T21:31:47;100900.69;;;14.91;89.29
49979;BME280;35869;50.990;6.962;2022-10-31T21:36:47;100902.72;;;14.86;89.25
49979;BME280;35869;50.990;6.962;2022-10-31T21:41:48;100907.28;;;14.82;89.35
49979;BME280;35869;50.990;6.962;2022-10-31T21:46:48;100893.81;;;14.74;89.03
49979;BME280;35869;50.990;6.962;2022-10-31T21:51:48;100892.13;;;14.73;89.06
49979;BME280;35869;50.990;6.962;2022-10-31T21:56:48;100894.28;;;14.66;88.77
49979;BME280;35869;50.990;6.962;2022-10-31T22:01:49;100889.31;;;14.62;89.45
49979;BME280;35869;50.990;6.962;2022-10-31T22:06:49;100885.00;;;14.61;90.49
49979;BME280;35869;50.990;6.962;2022-10-31T22:11:50;100880.16;;;14.69;88.68
49979;BME280;35869;50.990;6.962;2022-10-31T22:16:50;100864.09;;;14.61;89.15
49979;BME280;35869;50.990;6.962;2022-10-31T22:21:50;100865.03;;;14.60;88.72
49979;BME280;35869;50.990;6.962;2022-10-31T22:26:50;100859.03;;;14.58;89.50
49979;BME280;35869;50.990;6.962;2022-10-31T22:31:51;100856.97;;;14.63;88.49
49979;BME280;35869;50.990;6.962;2022-10-31T22:36:53;100851.00;;;14.61;88.78
49979;BME280;35869;50.990;6.962;2022-10-31T22:41:53;100856.59;;;14.55;90.36
49979;BME280;35869;50.990;6.962;2022-10-31T22:46:53;100854.88;;;14.54;90.25
49979;BME280;35869;50.990;6.962;2022-10-31T22:51:54;100848.75;;;14.55;89.71
49979;BME280;35869;50.990;6.962;2022-10-31T22:56:54;100863.66;;;14.53;90.74
49979;BME280;35869;50.990;6.962;2022-10-31T23:01:54;100854.56;;;14.60;89.80
49979;BME280;35869;50.990;6.962;2022-10-31T23:06:54;100873.97;;;14.56;90.21
49979;BME280;35869;50.990;6.962;2022-10-31T23:11:55;100876.59;;;14.56;90.50
49979;BME280;35869;50.990;6.962;2022-10-31T23:16:55;100863.53;;;14.70;88.47
49979;BME280;35869;50.990;6.962;2022-10-31T23:21:56;100855.50;;;14.73;89.75
49979;BME280;35869;50.990;6.962;2022-10-31T23:26:58;100846.72;;;14.74;89.43
49979;BME280;35869;50.990;6.962;2022-10-31T23:31:58;100857.88;;;14.78;88.42
49979;BME280;35869;50.990;6.962;2022-10-31T23:36:58;100864.78;;;14.79;89.89
49979;BME280;35869;50.990;6.962;2022-10-31T23:41:59;100848.13;;;14.80;90.16
49979;BME280;35869;50.990;6.962;2022-10-31T23:46:59;100860.38;;;14.79;90.85
49979;BME280;35869;50.990;6.962;2022-10-31T23:51:59;100856.91;;;14.79;91.92
49979;BME280;35869;50.990;6.962;2022-10-31T23:56:59;100847.75;;;14.86;91.80
